sensor_id;sensor_type;location;lat;lon;timestamp;pressure;altitude;pressure_sealevel;temperature;humidity
62152;BME280;48139;47.474;19.034;2022-12-16T05:01:13;99279.69;;;3.79;100.00
62152;BME280;48139;47.474;19.034;2022-12-16T05:04:35;99279.69;;;3.79;100.00
62152;BME280;48139;47.474;19.034;2022-12-16T05:07:56;99276.69;;;3.43;100.00
62152;BME280;48139;47.474;19.034;2022-12-16T05:11:17;99262.59;;;3.50;100.00
62152;BME280;48139;47.474;19.034;2022-12-16T05:14:38;99268.47;;;3.55;100.00
62152;BME280;48139;47.474;19.034;2022-12-16T05:18:10;99260.31;;;3.65;100.00
62152;BME280;48139;47.474;19.034;2022-12-16T05:21:31;99262.41;;;3.79;100.00
62152;BME280;48139;47.474;19.034;2022-12-16T05:24:52;99262.13;;;3.87;100.00
62152;BME280;48139;47.474;19.034;2022-12-16T05:28:14;99253.09;;;3.97;100.00
62152;BME280;48139;47.474;19.034;2022-12-16T05:31:35;99242.72;;;3.97;100.00
62152;BME280;48139;47.474;19.034;2022-12-16T05:34:56;99267.78;;;3.96;100.00
62152;BME280;48139;47.474;19.034;2022-12-16T05:38:17;99267.84;;;3.95;100.00
62152;BME280;48139;47.474;19.034;2022-12-16T05:41:38;99261.81;;;3.94;100.00
62152;BME280;48139;47.474;19.034;2022-12-16T05:45:00;99258.59;;;4.11;100.00
62152;BME280;48139;47.474;19.034;2022-12-16T05:48:21;99260.50;;;4.06;100.00
62152;BME280;48139;47.474;19.034;2022-12-16T05:51:49;99254.50;;;4.05;100.00
62152;BME280;48139;47.474;19.034;2022-12-16T05:55:10;99260.72;;;4.00;100.00
62152;BME280;48139;47.474;19.034;2022-12-16T05:58:35;99265.84;;;4.01;100.00
62152;BME280;48139;47.474;19.034;2022-12-16T06:01:56;99263.16;;;4.04;100.00
62152;BME280;48139;47.474;19.034;2022-12-16T06:05:17;99260.19;;;4.14;100.00
62152;BME280;48139;47.474;19.034;2022-12-16T06:08:39;99271.91;;;4.24;100.00
62152;BME280;48139;47.474;19.034;2022-12-16T06:12:00;99266.25;;;4.36;100.00
62152;BME280;48139;47.474;19.034;2022-12-16T06:15:21;99274.12;;;4.33;100.00
62152;BME280;48139;47.474;19.034;2022-12-16T06:18:42;99262.37;;;4.46;100.00
62152;BME280;48139;47.474;19.034;2022-12-16T06:22:04;99256.16;;;4.50;100.00
62152;BME280;48139;47.474;19.034;2022-12-16T06:25:25;99254.16;;;4.57;100.00
62152;BME280;48139;47.474;19.034;2022-12-16T06:28:46;99264.28;;;4.63;100.00
62152;BME280;48139;47.474;19.034;2022-12-16T06:32:07;99266.38;;;4.75;100.00
62152;BME280;48139;47.474;19.034;2022-12-16T06:35:28;99261.53;;;4.67;100.00
62152;BME280;48139;47.474;19.034;2022-12-16T06:38:50;99276.56;;;4.59;100.00
62152;BME280;48139;47.474;19.034;2022-12-16T06:42:11;99267.31;;;4.52;100.00
62152;BME280;48139;47.474;19.034;2022-12-16T06:45:32;99280.25;;;4.54;100.00
62152;BME280;48139;47.474;19.034;2022-12-16T06:48:53;99275.16;;;4.51;100.00
62152;BME280;48139;47.474;19.034;2022-12-16T06:52:14;99269.72;;;4.57;100.00
62152;BME280;48139;47.474;19.034;2022-12-16T06:55:36;99281.75;;;4.59;100.00
62152;BME280;48139;47.474;19.034;2022-12-16T06:58:58;99283.03;;;4.69;100.00
62152;BME280;48139;47.474;19.034;2022-12-16T07:02:19;99264.97;;;4.68;100.00
62152;BME280;48139;47.474;19.034;2022-12-16T07:05:41;99281.56;;;4.64;100.00
62152;BME280;48139;47.474;19.034;2022-12-16T07:09:02;99291.87;;;4.65;100.00
62152;BME280;48139;47.474;19.034;2022-12-16T07:12:24;99296.22;;;4.65;100.00
62152;BME280;48139;47.474;19.034;2022-12-16T07:15:45;99292.72;;;4.66;100.00
62152;BME280;48139;47.474;19.034;2022-12-16T07:19:07;99283.47;;;4.80;100.00
62152;BME280;48139;47.474;19.034;2022-12-16T07:22:28;99277.34;;;5.03;100.00
62152;BME280;48139;47.474;19.034;2022-12-16T07:26:00;99287.81;;;5.00;100.00
62152;BME280;48139;47.474;19.034;2022-12-16T07:29:21;99279.63;;;5.11;100.00
62152;BME280;48139;47.474;19.034;2022-12-16T07:32:42;99276.50;;;5.03;100.00
62152;BME280;48139;47.474;19.034;2022-12-16T07:36:03;99292.59;;;5.11;100.00
62152;BME280;48139;47.474;19.034;2022-12-16T07:39:24;99292.97;;;5.22;100.00
62152;BME280;48139;47.474;19.034;2022-12-16T07:42:54;99299.59;;;5.09;100.00
62152;BME280;48139;47.474;19.034;2022-12-16T07:46:15;99293.56;;;5.28;100.00
62152;BME280;48139;47.474;19.034;2022-12-16T07:49:37;99280.84;;;5.43;100.00
62152;BME280;48139;47.474;19.034;2022-12-16T07:52:59;99281.31;;;5.51;100.00
62152;BME280;48139;47.474;19.034;2022-12-16T07:56:21;99294.97;;;5.56;100.00
62152;BME280;48139;47.474;19.034;2022-12-16T07:59:42;99298.47;;;5.55;100.00
62152;BME280;48139;47.474;19.034;2022-12-16T08:03:13;99298.75;;;5.49;100.00
62152;BME280;48139;47.474;19.034;2022-12-16T08:06:35;99283.53;;;5.60;100.00
62152;BME280;48139;47.474;19.034;2022-12-16T08:09:58;99302.63;;;5.59;100.00
62152;BME280;48139;47.474;19.034;2022-12-16T08:13:19;99305.84;;;5.64;100.00
62152;BME280;48139;47.474;19.034;2022-12-16T08:16:41;99304.75;;;5.69;100.00
62152;BME280;48139;47.474;19.034;2022-12-16T08:20:02;99302.94;;;5.72;100.00
62152;BME280;48139;47.474;19.034;2022-12-16T08:23:24;99322.09;;;5.69;100.00
62152;BME280;48139;47.474;19.034;2022-12-16T08:26:45;99306.84;;;5.61;100.00
62152;BME280;48139;47.474;19.034;2022-12-16T08:30:12;99294.75;;;5.81;100.00
62152;BME280;48139;47.474;19.034;2022-12-16T08:33:35;99285.72;;;6.08;100.00
62152;BME280;48139;47.474;19.034;2022-12-16T08:36:57;99289.50;;;6.01;100.00
62152;BME280;48139;47.474;19.034;2022-12-16T08:40:18;99285.03;;;6.04;100.00
62152;BME280;48139;47.474;19.034;2022-12-16T08:43:39;99277.97;;;6.06;100.00
62152;BME280;48139;47.474;19.034;2022-12-16T08:47:01;99289.78;;;6.32;100.00
62152;BME280;48139;47.474;19.034;2022-12-16T08:50:22;99289.19;;;6.44;100.00
62152;BME280;48139;47.474;19.034;2022-12-16T08:53:44;99300.50;;;6.43;100.00
62152;BME280;48139;47.474;19.034;2022-12-16T08:57:05;99294.75;;;6.56;100.00
62152;BME280;48139;47.474;19.034;2022-12-16T09:00:26;99294.06;;;6.69;100.00
62152;BME280;48139;47.474;19.034;2022-12-16T09:03:48;99308.56;;;6.56;100.00
62152;BME280;48139;47.474;19.034;2022-12-16T09:07:09;99309.88;;;6.47;100.00
62152;BME280;48139;47.474;19.034;2022-12-16T09:10:31;99317.91;;;6.43;100.00
62152;BME280;48139;47.474;19.034;2022-12-16T09:13:52;99345.56;;;6.44;100.00
62152;BME280;48139;47.474;19.034;2022-12-16T09:17:13;99344.03;;;6.59;100.00
62152;BME280;48139;47.474;19.034;2022-12-16T09:20:34;99332.38;;;6.48;100.00
62152;BME280;48139;47.474;19.034;2022-12-16T09:23:56;99321.81;;;6.52;100.00
62152;BME280;48139;47.474;19.034;2022-12-16T09:27:18;99319.38;;;6.48;100.00
62152;BME280;48139;47.474;19.034;2022-12-16T09:30:39;99331.09;;;6.38;100.00
62152;BME280;48139;47.474;19.034;2022-12-16T09:34:01;99340.09;;;6.50;100.00
62152;BME280;48139;47.474;19.034;2022-12-16T09:37:22;99355.50;;;6.36;100.00
62152;BME280;48139;47.474;19.034;2022-12-16T09:40:44;99353.09;;;6.50;100.00
62152;BME280;48139;47.474;19.034;2022-12-16T09:44:15;99331.59;;;6.46;100.00
62152;BME280;48139;47.474;19.034;2022-12-16T09:51:07;99358.38;;;6.67;100.00
62152;BME280;48139;47.474;19.034;2022-12-16T09:54:32;99361.88;;;7.02;100.00
62152;BME280;48139;47.474;19.034;2022-12-16T09:57:56;99347.41;;;7.14;100.00
62152;BME280;48139;47.474;19.034;2022-12-16T10:01:18;99349.78;;;7.18;100.00
62152;BME280;48139;47.474;19.034;2022-12-16T10:04:43;99363.09;;;7.12;100.00
62152;BME280;48139;47.474;19.034;2022-12-16T10:08:21;99364.72;;;6.98;100.00
62152;BME280;48139;47.474;19.034;2022-12-16T10:15:51;99363.56;;;6.86;100.00
62152;BME280;48139;47.474;19.034;2022-12-16T10:23:10;99363.47;;;6.69;100.00
62152;BME280;48139;47.474;19.034;2022-12-16T10:27:02;99378.41;;;6.65;100.00
62152;BME280;48139;47.474;19.034;2022-12-16T10:30:31;99375.66;;;6.87;100.00
62152;BME280;48139;47.474;19.034;2022-12-16T10:33:53;99374.06;;;7.02;100.00
62152;BME280;48139;47.474;19.034;2022-12-16T10:37:27;99375.22;;;6.77;100.00
62152;BME280;48139;47.474;19.034;2022-12-16T10:40:52;99384.16;;;6.91;100.00
62152;BME280;48139;47.474;19.034;2022-12-16T10:44:56;99390.87;;;6.95;100.00
62152;BME280;48139;47.474;19.034;2022-12-16T10:48:25;99396.19;;;6.93;100.00
62152;BME280;48139;47.474;19.034;2022-12-16T10:51:57;99396.59;;;6.84;100.00
62152;BME280;48139;47.474;19.034;2022-12-16T10:55:33;99393.88;;;6.87;100.00
62152;BME280;48139;47.474;19.034;2022-12-16T10:59:02;99383.19;;;6.74;100.00
62152;BME280;48139;47.474;19.034;2022-12-16T11:02:27;99384.81;;;6.58;100.00
62152;BME280;48139;47.474;19.034;2022-12-16T11:05:49;99393.97;;;6.48;100.00
62152;BME280;48139;47.474;19.034;2022-12-16T11:09:21;99394.66;;;6.33;100.00
62152;BME280;48139;47.474;19.034;2022-12-16T11:12:44;99403.78;;;6.23;100.00
62152;BME280;48139;47.474;19.034;2022-12-16T11:19:32;99412.72;;;6.36;100.00
62152;BME280;48139;47.474;19.034;2022-12-16T11:23:08;99396.91;;;6.59;100.00
62152;BME280;48139;47.474;19.034;2022-12-16T11:26:33;99404.09;;;6.73;100.00
62152;BME280;48139;47.474;19.034;2022-12-16T11:29:56;99405.63;;;6.77;100.00
62152;BME280;48139;47.474;19.034;2022-12-16T11:33:22;99423.22;;;6.72;100.00
62152;BME280;48139;47.474;19.034;2022-12-16T11:36:45;99422.00;;;6.79;100.00
62152;BME280;48139;47.474;19.034;2022-12-16T11:40:16;99444.72;;;6.57;100.00
62152;BME280;48139;47.474;19.034;2022-12-16T11:43:39;99460.87;;;6.44;100.00
62152;BME280;48139;47.474;19.034;2022-12-16T11:47:14;99477.06;;;6.51;100.00
62152;BME280;48139;47.474;19.034;2022-12-16T11:50:41;99486.44;;;6.55;100.00
62152;BME280;48139;47.474;19.034;2022-12-16T11:54:17;99496.28;;;6.48;100.00
62152;BME280;48139;47.474;19.034;2022-12-16T11:57:44;99492.00;;;6.66;100.00
62152;BME280;48139;47.474;19.034;2022-12-16T12:01:29;99492.97;;;6.64;100.00
62152;BME280;48139;47.474;19.034;2022-12-16T12:04:52;99496.19;;;6.50;100.00
62152;BME280;48139;47.474;19.034;2022-12-16T12:08:38;99477.28;;;6.46;100.00
62152;BME280;48139;47.474;19.034;2022-12-16T12:15:57;99448.09;;;6.40;100.00
62152;BME280;48139;47.474;19.034;2022-12-16T12:22:50;99434.44;;;6.35;100.00
62152;BME280;48139;47.474;19.034;2022-12-16T12:26:16;99419.13;;;6.29;100.00
62152;BME280;48139;47.474;19.034;2022-12-16T12:29:54;99418.66;;;6.19;100.00
62152;BME280;48139;47.474;19.034;2022-12-16T12:33:33;99434.56;;;6.32;100.00
62152;BME280;48139;47.474;19.034;2022-12-16T12:37:23;99436.87;;;6.19;100.00
62152;BME280;48139;47.474;19.034;2022-12-16T12:48:53;99441.47;;;6.52;100.00
62152;BME280;48139;47.474;19.034;2022-12-16T12:59:46;99482.56;;;6.82;100.00
62152;BME280;48139;47.474;19.034;2022-12-16T13:03:23;99485.44;;;6.76;100.00
62152;BME280;48139;47.474;19.034;2022-12-16T13:06:48;99497.06;;;6.88;100.00
62152;BME280;48139;47.474;19.034;2022-12-16T13:13:46;99502.53;;;7.01;100.00
62152;BME280;48139;47.474;19.034;2022-12-16T13:17:07;99484.19;;;7.04;100.00
62152;BME280;48139;47.474;19.034;2022-12-16T13:23:52;99485.38;;;6.97;100.00
62152;BME280;48139;47.474;19.034;2022-12-16T13:27:14;99486.06;;;7.00;100.00
62152;BME280;48139;47.474;19.034;2022-12-16T13:30:36;99473.56;;;7.08;100.00
62152;BME280;48139;47.474;19.034;2022-12-16T13:34:04;99489.34;;;7.05;100.00
62152;BME280;48139;47.474;19.034;2022-12-16T13:37:27;99501.00;;;6.97;100.00
62152;BME280;48139;47.474;19.034;2022-12-16T13:40:58;99516.28;;;6.85;100.00
62152;BME280;48139;47.474;19.034;2022-12-16T13:48:02;99538.06;;;6.83;100.00
62152;BME280;48139;47.474;19.034;2022-12-16T13:55:05;99543.78;;;6.72;100.00
62152;BME280;48139;47.474;19.034;2022-12-16T13:58:44;99559.94;;;6.60;100.00
62152;BME280;48139;47.474;19.034;2022-12-16T14:02:20;99577.03;;;6.66;100.00
62152;BME280;48139;47.474;19.034;2022-12-16T14:05:46;99576.97;;;6.67;100.00
62152;BME280;48139;47.474;19.034;2022-12-16T14:09:22;99575.13;;;6.69;100.00
62152;BME280;48139;47.474;19.034;2022-12-16T14:12:55;99579.56;;;6.67;100.00
62152;BME280;48139;47.474;19.034;2022-12-16T14:16:30;99583.78;;;6.70;100.00
62152;BME280;48139;47.474;19.034;2022-12-16T14:27:04;99565.78;;;6.65;100.00
62152;BME280;48139;47.474;19.034;2022-12-16T14:30:25;99561.47;;;6.64;100.00
62152;BME280;48139;47.474;19.034;2022-12-16T14:33:51;99564.13;;;6.63;100.00
62152;BME280;48139;47.474;19.034;2022-12-16T14:37:18;99582.28;;;6.64;100.00
62152;BME280;48139;47.474;19.034;2022-12-16T14:40:40;99592.06;;;6.59;100.00
62152;BME280;48139;47.474;19.034;2022-12-16T14:44:02;99606.28;;;6.51;100.00
62152;BME280;48139;47.474;19.034;2022-12-16T14:47:25;99599.91;;;6.37;100.00
62152;BME280;48139;47.474;19.034;2022-12-16T14:50:47;99608.06;;;6.30;100.00
62152;BME280;48139;47.474;19.034;2022-12-16T14:54:21;99610.72;;;6.28;100.00
62152;BME280;48139;47.474;19.034;2022-12-16T15:01:25;99606.41;;;6.27;100.00
62152;BME280;48139;47.474;19.034;2022-12-16T15:04:47;99600.88;;;6.15;100.00
62152;BME280;48139;47.474;19.034;2022-12-16T15:08:10;99583.19;;;6.02;100.00
62152;BME280;48139;47.474;19.034;2022-12-16T15:11:32;99579.09;;;5.97;100.00
62152;BME280;48139;47.474;19.034;2022-12-16T15:14:56;99599.03;;;5.96;100.00
62152;BME280;48139;47.474;19.034;2022-12-16T15:18:25;99602.22;;;6.03;100.00
62152;BME280;48139;47.474;19.034;2022-12-16T15:21:48;99604.59;;;5.87;100.00
62152;BME280;48139;47.474;19.034;2022-12-16T15:25:21;99615.13;;;5.83;100.00
62152;BME280;48139;47.474;19.034;2022-12-16T15:28:43;99645.56;;;6.02;100.00
62152;BME280;48139;47.474;19.034;2022-12-16T15:32:31;99659.63;;;5.98;100.00
62152;BME280;48139;47.474;19.034;2022-12-16T15:36:00;99663.47;;;6.10;100.00
62152;BME280;48139;47.474;19.034;2022-12-16T15:39:35;99678.03;;;6.14;100.00
62152;BME280;48139;47.474;19.034;2022-12-16T15:42:57;99690.00;;;5.96;100.00
62152;BME280;48139;47.474;19.034;2022-12-16T15:46:24;99701.50;;;6.13;100.00
62152;BME280;48139;47.474;19.034;2022-12-16T15:49:47;99694.28;;;6.19;100.00
62152;BME280;48139;47.474;19.034;2022-12-16T15:53:37;99701.50;;;6.13;100.00
62152;BME280;48139;47.474;19.034;2022-12-16T15:56:58;99691.34;;;6.06;100.00
62152;BME280;48139;47.474;19.034;2022-12-16T16:03:50;99695.66;;;5.84;100.00
62152;BME280;48139;47.474;19.034;2022-12-16T16:07:15;99690.25;;;5.90;100.00
62152;BME280;48139;47.474;19.034;2022-12-16T16:10:37;99688.56;;;6.11;100.00
62152;BME280;48139;47.474;19.034;2022-12-16T16:13:58;99675.69;;;6.08;100.00
62152;BME280;48139;47.474;19.034;2022-12-16T16:17:21;99681.41;;;5.94;100.00
62152;BME280;48139;47.474;19.034;2022-12-16T16:20:43;99682.88;;;6.01;100.00
